Accueil
METAR-TAF:

METAR-TAF

Aéroports :

Grande Canarie, Espagne

Aéroport de Gran Canaria

latitude: 27-56N, longitude: 015-23W, altitude: 23 m

Observation

Le bulletin a été fait il y a 21 minutes, à 12:30 UTC
Vent 21 kt de nord/nord-est
Température 26°C
Humidité 58%
Pression 1022 hPa
Visibilité 10 km ou plus
Quelques nuages à une hauteur de 3000 ft

METAR: GCLP 181230Z 03021KT 9999 FEW030 26/17 Q1022 NOSIG

Heure: 13:51 (12:51 UTC)

Prévision

Le bulletin a été fait il y a 4 heures et 51 minutes, à 08:00 UTC
Prévision valable du 18 à 09 UTC au 19 à 09 UTC
Vent 18 kt de nord/nord-est
Visibilité 10 km ou plus
Quelques nuages à une hauteur de 2000 ft

TAF: GCLP 180800Z 1809/1909 03018KT 9999 FEW020 TX23/1813Z TN20/1906Z

Observations et prévisions météorologiques de plus de 4000 aéroports (messages METAR et TAF).

Les stations disponibles sont représentées par des disques jaunes et rouges sur la carte.

Passer la souris dessus pour voir le nom de la station.

Cliquer dessus pour voir les observations et prévisions météorologiques.

Pour changer de carte: cliquez sur les boutons verts avec une croix noire pour zoomer, sur le bouton vert avec un tiret pour effectuer un zoom arrière, ou sur les flèches vertes pour les cartes adjacentes.


METAR-TAF: